sensor_id;sensor_type;location;lat;lon;timestamp;P1;durP1;ratioP1;P2;durP2;ratioP2
10769;SDS011;5437;50.852;4.438;2022-07-29T18:23:35;2.25;;;2.10;;
10769;SDS011;5437;50.852;4.438;2022-07-29T18:26:01;3.05;;;2.10;;
10769;SDS011;5437;50.852;4.438;2022-07-29T18:28:27;2.08;;;1.88;;
10769;SDS011;5437;50.852;4.438;2022-07-29T18:30:53;2.10;;;1.90;;
10769;SDS011;5437;50.852;4.438;2022-07-29T18:33:19;3.60;;;1.77;;
10769;SDS011;5437;50.852;4.438;2022-07-29T18:35:45;2.72;;;1.80;;
10769;SDS011;5437;50.852;4.438;2022-07-29T18:38:12;2.83;;;1.80;;
10769;SDS011;5437;50.852;4.438;2022-07-29T18:40:38;2.28;;;2.08;;
10769;SDS011;5437;50.852;4.438;2022-07-29T18:43:06;1.70;;;1.60;;
10769;SDS011;5437;50.852;4.438;2022-07-29T18:45:32;2.65;;;1.92;;
10769;SDS011;5437;50.852;4.438;2022-07-29T18:47:58;3.17;;;1.77;;
10769;SDS011;5437;50.852;4.438;2022-07-29T18:50:25;2.97;;;2.00;;
10769;SDS011;5437;50.852;4.438;2022-07-29T18:52:51;3.13;;;1.90;;
10769;SDS011;5437;50.852;4.438;2022-07-29T18:55:17;2.25;;;2.05;;
10769;SDS011;5437;50.852;4.438;2022-07-29T18:57:43;2.88;;;1.98;;
10769;SDS011;5437;50.852;4.438;2022-07-29T19:00:09;3.72;;;2.00;;
10769;SDS011;5437;50.852;4.438;2022-07-29T19:02:36;2.40;;;1.80;;
10769;SDS011;5437;50.852;4.438;2022-07-29T19:05:03;2.70;;;1.58;;
10769;SDS011;5437;50.852;4.438;2022-07-29T19:07:29;2.17;;;1.63;;
10769;SDS011;5437;50.852;4.438;2022-07-29T19:09:55;3.55;;;2.05;;
10769;SDS011;5437;50.852;4.438;2022-07-29T19:12:21;2.42;;;1.85;;
10769;SDS011;5437;50.852;4.438;2022-07-29T19:14:47;3.63;;;1.77;;
10769;SDS011;5437;50.852;4.438;2022-07-29T19:17:13;3.85;;;1.83;;
10769;SDS011;5437;50.852;4.438;2022-07-29T19:19:39;1.73;;;1.40;;
10769;SDS011;5437;50.852;4.438;2022-07-29T19:22:05;2.15;;;1.80;;
10769;SDS011;5437;50.852;4.438;2022-07-29T19:24:31;2.03;;;1.80;;
10769;SDS011;5437;50.852;4.438;2022-07-29T19:26:57;2.10;;;1.60;;
10769;SDS011;5437;50.852;4.438;2022-07-29T19:29:23;2.50;;;1.88;;
10769;SDS011;5437;50.852;4.438;2022-07-29T19:31:50;5.35;;;1.55;;
10769;SDS011;5437;50.852;4.438;2022-07-29T19:34:16;1.92;;;1.80;;
10769;SDS011;5437;50.852;4.438;2022-07-29T19:36:42;2.78;;;1.80;;
10769;SDS011;5437;50.852;4.438;2022-07-29T19:39:08;2.70;;;2.00;;
10769;SDS011;5437;50.852;4.438;2022-07-29T19:41:34;2.78;;;1.77;;
10769;SDS011;5437;50.852;4.438;2022-07-29T19:44:00;3.10;;;1.90;;
10769;SDS011;5437;50.852;4.438;2022-07-29T19:46:26;2.13;;;1.80;;
10769;SDS011;5437;50.852;4.438;2022-07-29T19:48:53;2.75;;;1.73;;
10769;SDS011;5437;50.852;4.438;2022-07-29T19:51:19;2.50;;;1.67;;
10769;SDS011;5437;50.852;4.438;2022-07-29T19:53:46;2.22;;;1.50;;
10769;SDS011;5437;50.852;4.438;2022-07-29T19:56:12;2.38;;;1.90;;
10769;SDS011;5437;50.852;4.438;2022-07-29T19:58:38;1.85;;;1.63;;
10769;SDS011;5437;50.852;4.438;2022-07-29T20:01:04;2.40;;;1.70;;
10769;SDS011;5437;50.852;4.438;2022-07-29T20:03:31;2.38;;;1.67;;
10769;SDS011;5437;50.852;4.438;2022-07-29T20:05:57;2.70;;;1.70;;
10769;SDS011;5437;50.852;4.438;2022-07-29T20:08:23;3.05;;;2.10;;
10769;SDS011;5437;50.852;4.438;2022-07-29T20:10:50;5.35;;;1.90;;
10769;SDS011;5437;50.852;4.438;2022-07-29T20:13:16;3.10;;;1.60;;
10769;SDS011;5437;50.852;4.438;2022-07-29T20:15:42;4.28;;;1.67;;
10769;SDS011;5437;50.852;4.438;2022-07-29T20:18:08;3.13;;;1.67;;
10769;SDS011;5437;50.852;4.438;2022-07-29T20:20:34;2.53;;;1.90;;
10769;SDS011;5437;50.852;4.438;2022-07-29T20:23:00;3.90;;;1.48;;
10769;SDS011;5437;50.852;4.438;2022-07-29T20:25:27;2.83;;;1.73;;
10769;SDS011;5437;50.852;4.438;2022-07-29T20:27:53;2.53;;;1.90;;
10769;SDS011;5437;50.852;4.438;2022-07-29T20:30:19;4.00;;;1.75;;
10769;SDS011;5437;50.852;4.438;2022-07-29T20:32:45;2.22;;;1.70;;
10769;SDS011;5437;50.852;4.438;2022-07-29T20:35:11;2.63;;;1.58;;
10769;SDS011;5437;50.852;4.438;2022-07-29T20:37:38;2.17;;;1.63;;
10769;SDS011;5437;50.852;4.438;2022-07-29T20:40:05;2.45;;;1.80;;
10769;SDS011;5437;50.852;4.438;2022-07-29T20:42:31;1.75;;;1.45;;
10769;SDS011;5437;50.852;4.438;2022-07-29T20:44:57;4.82;;;2.05;;
10769;SDS011;5437;50.852;4.438;2022-07-29T20:47:24;1.95;;;1.75;;
10769;SDS011;5437;50.852;4.438;2022-07-29T20:49:50;2.17;;;1.80;;
10769;SDS011;5437;50.852;4.438;2022-07-29T20:52:16;2.88;;;1.80;;
10769;SDS011;5437;50.852;4.438;2022-07-29T20:54:43;2.15;;;1.88;;
10769;SDS011;5437;50.852;4.438;2022-07-29T20:57:09;2.70;;;1.63;;
10769;SDS011;5437;50.852;4.438;2022-07-29T20:59:35;2.95;;;2.15;;
10769;SDS011;5437;50.852;4.438;2022-07-29T21:02:01;5.22;;;1.80;;
10769;SDS011;5437;50.852;4.438;2022-07-29T21:04:27;3.72;;;1.60;;
10769;SDS011;5437;50.852;4.438;2022-07-29T21:06:53;1.90;;;1.70;;
10769;SDS011;5437;50.852;4.438;2022-07-29T21:09:19;1.88;;;1.65;;
10769;SDS011;5437;50.852;4.438;2022-07-29T21:11:45;2.33;;;1.73;;
10769;SDS011;5437;50.852;4.438;2022-07-29T21:14:11;3.47;;;1.85;;
10769;SDS011;5437;50.852;4.438;2022-07-29T21:16:53;4.55;;;2.03;;
10769;SDS011;5437;50.852;4.438;2022-07-29T21:19:19;4.63;;;2.13;;
10769;SDS011;5437;50.852;4.438;2022-07-29T21:21:45;2.15;;;1.75;;
10769;SDS011;5437;50.852;4.438;2022-07-29T21:24:11;2.75;;;1.98;;
10769;SDS011;5437;50.852;4.438;2022-07-29T21:26:37;3.55;;;1.90;;
10769;SDS011;5437;50.852;4.438;2022-07-29T21:29:03;4.25;;;1.88;;
10769;SDS011;5437;50.852;4.438;2022-07-29T21:31:29;2.03;;;1.70;;
10769;SDS011;5437;50.852;4.438;2022-07-29T21:33:55;2.78;;;1.90;;
10769;SDS011;5437;50.852;4.438;2022-07-29T21:36:21;4.35;;;2.10;;
10769;SDS011;5437;50.852;4.438;2022-07-29T21:38:47;3.97;;;1.90;;
10769;SDS011;5437;50.852;4.438;2022-07-29T21:41:13;5.05;;;2.35;;
10769;SDS011;5437;50.852;4.438;2022-07-29T21:43:39;4.40;;;2.10;;
10769;SDS011;5437;50.852;4.438;2022-07-29T21:46:06;4.20;;;2.10;;
10769;SDS011;5437;50.852;4.438;2022-07-29T21:48:32;3.28;;;2.05;;
10769;SDS011;5437;50.852;4.438;2022-07-29T21:50:58;4.25;;;2.10;;
10769;SDS011;5437;50.852;4.438;2022-07-29T21:53:24;2.28;;;1.95;;
10769;SDS011;5437;50.852;4.438;2022-07-29T21:55:50;3.92;;;2.13;;
10769;SDS011;5437;50.852;4.438;2022-07-29T21:58:18;2.53;;;2.10;;
10769;SDS011;5437;50.852;4.438;2022-07-29T22:00:45;2.50;;;1.98;;
10769;SDS011;5437;50.852;4.438;2022-07-29T22:03:11;2.55;;;2.30;;
10769;SDS011;5437;50.852;4.438;2022-07-29T22:05:37;3.65;;;2.22;;
10769;SDS011;5437;50.852;4.438;2022-07-29T22:08:03;3.60;;;2.10;;
10769;SDS011;5437;50.852;4.438;2022-07-29T22:10:30;3.88;;;2.10;;
10769;SDS011;5437;50.852;4.438;2022-07-29T22:12:56;5.55;;;2.28;;
10769;SDS011;5437;50.852;4.438;2022-07-29T22:15:23;3.67;;;2.30;;
10769;SDS011;5437;50.852;4.438;2022-07-29T22:17:49;3.33;;;2.28;;
10769;SDS011;5437;50.852;4.438;2022-07-29T22:20:16;4.20;;;2.65;;
10769;SDS011;5437;50.852;4.438;2022-07-29T22:22:42;4.90;;;2.40;;
10769;SDS011;5437;50.852;4.438;2022-07-29T22:25:08;4.70;;;2.40;;
10769;SDS011;5437;50.852;4.438;2022-07-29T22:27:35;3.55;;;2.50;;
10769;SDS011;5437;50.852;4.438;2022-07-29T22:30:01;4.47;;;2.50;;
10769;SDS011;5437;50.852;4.438;2022-07-29T22:32:27;3.20;;;2.28;;
10769;SDS011;5437;50.852;4.438;2022-07-29T22:34:53;4.70;;;2.88;;
10769;SDS011;5437;50.852;4.438;2022-07-29T22:37:19;4.40;;;2.58;;
10769;SDS011;5437;50.852;4.438;2022-07-29T22:39:45;4.15;;;2.40;;
10769;SDS011;5437;50.852;4.438;2022-07-29T22:42:11;3.85;;;2.60;;
10769;SDS011;5437;50.852;4.438;2022-07-29T22:44:37;4.80;;;2.55;;
10769;SDS011;5437;50.852;4.438;2022-07-29T22:47:03;4.07;;;2.70;;
10769;SDS011;5437;50.852;4.438;2022-07-29T22:49:29;5.32;;;2.80;;
10769;SDS011;5437;50.852;4.438;2022-07-29T22:51:55;4.70;;;2.50;;
10769;SDS011;5437;50.852;4.438;2022-07-29T22:54:21;4.78;;;2.63;;
10769;SDS011;5437;50.852;4.438;2022-07-29T22:56:47;4.75;;;2.53;;
10769;SDS011;5437;50.852;4.438;2022-07-29T22:59:13;3.72;;;2.65;;
10769;SDS011;5437;50.852;4.438;2022-07-29T23:01:39;5.28;;;2.67;;
10769;SDS011;5437;50.852;4.438;2022-07-29T23:04:05;5.40;;;2.85;;
10769;SDS011;5437;50.852;4.438;2022-07-29T23:06:31;4.90;;;3.28;;
10769;SDS011;5437;50.852;4.438;2022-07-29T23:08:57;4.43;;;2.53;;
10769;SDS011;5437;50.852;4.438;2022-07-29T23:11:23;4.80;;;2.88;;
10769;SDS011;5437;50.852;4.438;2022-07-29T23:13:49;5.40;;;2.90;;
10769;SDS011;5437;50.852;4.438;2022-07-29T23:16:15;3.85;;;3.05;;
10769;SDS011;5437;50.852;4.438;2022-07-29T23:18:41;3.63;;;3.20;;
10769;SDS011;5437;50.852;4.438;2022-07-29T23:21:07;6.85;;;3.38;;
10769;SDS011;5437;50.852;4.438;2022-07-29T23:23:33;4.18;;;3.55;;
10769;SDS011;5437;50.852;4.438;2022-07-29T23:25:59;3.92;;;3.10;;
10769;SDS011;5437;50.852;4.438;2022-07-29T23:28:25;6.68;;;3.78;;
10769;SDS011;5437;50.852;4.438;2022-07-29T23:30:51;6.30;;;3.67;;
10769;SDS011;5437;50.852;4.438;2022-07-29T23:33:17;5.80;;;3.60;;
10769;SDS011;5437;50.852;4.438;2022-07-29T23:35:43;4.88;;;3.80;;
10769;SDS011;5437;50.852;4.438;2022-07-29T23:38:09;5.30;;;3.70;;
10769;SDS011;5437;50.852;4.438;2022-07-29T23:40:35;7.03;;;4.15;;
10769;SDS011;5437;50.852;4.438;2022-07-29T23:43:01;5.10;;;3.67;;
10769;SDS011;5437;50.852;4.438;2022-07-29T23:45:27;5.82;;;3.80;;
10769;SDS011;5437;50.852;4.438;2022-07-29T23:47:53;6.45;;;4.07;;
10769;SDS011;5437;50.852;4.438;2022-07-29T23:50:19;5.22;;;3.78;;
10769;SDS011;5437;50.852;4.438;2022-07-29T23:52:45;6.38;;;3.72;;
10769;SDS011;5437;50.852;4.438;2022-07-29T23:55:11;6.10;;;4.18;;
10769;SDS011;5437;50.852;4.438;2022-07-29T23:57:37;7.88;;;4.00;;
